createdAt,value
2022-11-01T00:02:15.115Z,889.92
2022-11-01T00:04:42.525Z,879.10
2022-11-01T00:07:09.555Z,891.40
2022-11-01T00:09:37.182Z,883.70
2022-11-01T00:12:04.929Z,892.15
2022-11-01T00:14:32.017Z,896.88
2022-11-01T00:16:59.121Z,880.20
2022-11-01T00:19:26.189Z,904.85
2022-11-01T00:21:53.211Z,870.08
2022-11-01T00:24:20.255Z,874.90
2022-11-01T00:29:19.115Z,885.25
2022-11-01T00:31:46.187Z,883.45
2022-11-01T00:34:13.213Z,880.88
2022-11-01T00:36:40.225Z,882.53
2022-11-01T00:39:07.904Z,871.80
2022-11-01T00:41:35.537Z,877.00
2022-11-01T00:44:02.672Z,856.80
2022-11-01T00:46:30.655Z,879.63
2022-11-01T00:48:57.678Z,860.47
2022-11-01T00:51:25.049Z,858.50
2022-11-01T00:53:52.082Z,865.40
2022-11-01T00:56:19.333Z,855.05
2022-11-01T00:58:46.315Z,861.30
2022-11-01T01:01:13.574Z,854.28
2022-11-01T01:03:40.750Z,856.03
2022-11-01T01:06:07.867Z,849.35
2022-11-01T01:08:35.008Z,867.20
2022-11-01T01:11:01.986Z,851.08
2022-11-01T01:13:28.943Z,862.10
2022-11-01T01:15:57.440Z,825.22
2022-11-01T01:18:24.370Z,832.47
2022-11-01T01:20:51.332Z,851.08
2022-11-01T01:23:18.451Z,859.75
2022-11-01T01:25:45.376Z,847.63
2022-11-01T01:28:12.474Z,835.67
2022-11-01T01:30:42.640Z,884.25
2022-11-01T01:35:42.773Z,856.67
2022-11-01T01:38:09.715Z,854.85
2022-11-01T01:40:36.784Z,857.90
2022-11-01T01:43:03.915Z,850.22
2022-11-01T01:45:38.950Z,860.17
2022-11-01T01:48:26.377Z,850.00
2022-11-01T01:51:04.530Z,842.83
2022-11-01T01:53:52.514Z,857.72
2022-11-01T01:56:32.361Z,836.20
2022-11-01T01:59:05.765Z,851.58
2022-11-01T02:01:36.767Z,849.45
2022-11-01T02:04:18.404Z,824.60
2022-11-01T02:06:47.142Z,850.63
2022-11-01T02:09:16.335Z,843.33
2022-11-01T02:11:43.342Z,856.90
2022-11-01T02:14:10.378Z,847.58
2022-11-01T02:17:07.111Z,829.33
2022-11-01T02:20:09.073Z,838.42
2022-11-01T02:22:54.990Z,838.42
2022-11-01T02:25:49.236Z,844.53
2022-11-01T02:29:18.284Z,843.00
2022-11-01T02:32:23.063Z,843.95
2022-11-01T02:34:59.384Z,825.40
2022-11-01T02:37:34.688Z,843.72
2022-11-01T02:40:15.826Z,876.58
2022-11-01T02:42:48.163Z,852.08
2022-11-01T02:45:34.996Z,847.38
2022-11-01T02:48:04.633Z,842.80
2022-11-01T02:50:44.386Z,823.55
2022-11-01T02:53:12.961Z,844.22
2022-11-01T02:55:40.246Z,847.47
2022-11-01T02:58:17.739Z,831.28
2022-11-01T03:00:45.995Z,852.42
2022-11-01T03:03:17.001Z,851.58
2022-11-01T03:06:04.913Z,858.80
2022-11-01T03:08:34.354Z,870.08
2022-11-01T03:11:10.955Z,859.65
2022-11-01T03:14:01.660Z,848.63
2022-11-01T03:16:37.302Z,853.95
2022-11-01T03:19:32.411Z,822.22
2022-11-01T03:22:11.034Z,864.97
2022-11-01T03:25:03.618Z,855.20
2022-11-01T03:27:44.731Z,852.13
2022-11-01T03:30:14.672Z,863.55
2022-11-01T03:32:47.058Z,847.08
2022-11-01T03:35:22.590Z,841.75
2022-11-01T03:37:53.300Z,833.30
2022-11-01T03:40:22.315Z,828.00
2022-11-01T03:42:52.090Z,829.95
2022-11-01T03:47:57.124Z,800.47
2022-11-01T03:50:27.549Z,831.97
2022-11-01T03:52:55.017Z,814.03
2022-11-01T03:55:22.560Z,813.75
2022-11-01T03:57:50.210Z,814.42
2022-11-01T04:00:27.298Z,833.60
2022-11-01T04:02:56.567Z,817.28
2022-11-01T04:05:26.284Z,842.03
2022-11-01T04:07:54.074Z,836.58
2022-11-01T04:10:23.452Z,864.15
2022-11-01T04:12:51.269Z,871.58
2022-11-01T04:15:38.948Z,873.75
2022-11-01T04:18:44.801Z,854.25
2022-11-01T04:21:16.186Z,881.10
2022-11-01T04:23:44.431Z,865.05
2022-11-01T04:26:14.708Z,864.65
2022-11-01T04:28:42.036Z,877.22
2022-11-01T04:31:09.182Z,853.63
2022-11-01T04:33:36.651Z,858.17
2022-11-01T04:36:07.524Z,852.58
2022-11-01T04:38:34.655Z,852.33
2022-11-01T04:41:01.647Z,863.17
2022-11-01T04:43:28.571Z,852.70
2022-11-01T04:45:58.617Z,864.60
2022-11-01T04:48:26.963Z,872.53
2022-11-01T04:50:54.080Z,863.35
2022-11-01T04:53:21.064Z,871.30
2022-11-01T04:55:47.989Z,850.35
2022-11-01T04:58:14.950Z,861.10
2022-11-01T05:00:43.902Z,870.25
2022-11-01T05:03:11.508Z,889.33
2022-11-01T05:05:39.211Z,855.33
2022-11-01T05:08:12.136Z,875.50
2022-11-01T05:10:44.694Z,861.58
2022-11-01T05:13:13.284Z,851.55
2022-11-01T05:15:53.631Z,827.22
2022-11-01T05:18:27.388Z,837.38
2022-11-01T05:20:56.241Z,859.22
2022-11-01T05:23:23.562Z,850.08
2022-11-01T05:25:50.533Z,859.45
2022-11-01T05:28:17.496Z,834.75
2022-11-01T05:30:45.175Z,850.80
2022-11-01T05:33:12.283Z,816.95
2022-11-01T05:35:39.906Z,818.63
2022-11-01T05:38:06.902Z,805.72
2022-11-01T05:40:34.116Z,788.65
2022-11-01T05:43:01.339Z,834.95
2022-11-01T05:45:28.635Z,809.25
2022-11-01T05:47:56.721Z,813.00
2022-11-01T05:50:23.876Z,786.97
2022-11-01T05:52:50.912Z,791.78
2022-11-01T05:55:18.209Z,793.30
2022-11-01T05:57:45.220Z,709.15
2022-11-01T06:00:12.715Z,714.40
2022-11-01T06:02:39.868Z,694.20
2022-11-01T06:05:07.386Z,704.08
2022-11-01T06:07:36.690Z,681.05
2022-11-01T06:10:05.401Z,708.25
2022-11-01T06:12:32.666Z,706.33
2022-11-01T06:14:59.639Z,715.08
2022-11-01T06:17:26.780Z,718.42
2022-11-01T06:19:53.758Z,743.47
2022-11-01T06:22:20.800Z,706.50
2022-11-01T06:24:48.420Z,727.60
2022-11-01T06:27:15.404Z,730.65
2022-11-01T06:29:42.472Z,741.22
2022-11-01T06:32:09.661Z,744.08
2022-11-01T06:34:40.841Z,750.50
2022-11-01T06:37:14.278Z,761.22
2022-11-01T06:39:41.272Z,786.17
2022-11-01T06:42:10.076Z,751.47
2022-11-01T06:44:37.254Z,781.83
2022-11-01T06:47:04.425Z,732.65
2022-11-01T06:49:31.802Z,764.03
2022-11-01T06:51:59.070Z,755.25
2022-11-01T06:54:26.284Z,770.15
2022-11-01T06:56:56.231Z,751.15
2022-11-01T06:59:23.598Z,736.35
2022-11-01T07:01:52.246Z,749.22
2022-11-01T07:04:19.392Z,748.53
2022-11-01T07:06:46.351Z,738.70
2022-11-01T07:09:13.381Z,741.97
2022-11-01T07:11:40.347Z,746.28
2022-11-01T07:14:07.556Z,749.28
2022-11-01T07:16:34.666Z,735.00
2022-11-01T07:19:01.730Z,744.83
2022-11-01T07:21:28.764Z,761.58
2022-11-01T07:23:55.764Z,763.50
2022-11-01T07:26:22.933Z,724.95
2022-11-01T07:28:50.048Z,740.90
2022-11-01T07:31:17.720Z,766.72
2022-11-01T07:33:44.804Z,756.58
2022-11-01T07:36:13.128Z,748.88
2022-11-01T07:38:40.390Z,752.10
2022-11-01T07:41:07.758Z,740.63
2022-11-01T07:43:35.780Z,760.45
2022-11-01T07:46:07.266Z,744.58
2022-11-01T07:48:36.640Z,750.92
2022-11-01T07:51:05.869Z,752.40
2022-11-01T07:53:34.079Z,747.72
2022-11-01T07:56:04.064Z,752.60
2022-11-01T07:58:31.350Z,734.47
2022-11-01T08:00:58.543Z,757.40
2022-11-01T08:03:25.732Z,749.08
2022-11-01T08:05:53.284Z,731.58
2022-11-01T08:08:20.464Z,725.28
2022-11-01T08:10:47.687Z,719.13
2022-11-01T08:13:22.599Z,736.42
2022-11-01T08:15:52.036Z,747.67
2022-11-01T08:18:24.355Z,733.83
2022-11-01T08:20:51.842Z,718.75
2022-11-01T08:23:19.182Z,728.92
2022-11-01T08:25:46.673Z,713.42
2022-11-01T08:28:20.335Z,731.67
2022-11-01T08:30:49.846Z,731.70
2022-11-01T08:33:17.169Z,736.58
2022-11-01T08:35:50.108Z,708.38
2022-11-01T08:38:17.641Z,723.78
2022-11-01T08:40:44.680Z,716.42
2022-11-01T08:43:11.836Z,719.55
2022-11-01T08:45:38.984Z,713.78
2022-11-01T08:48:06.473Z,719.92
2022-11-01T08:50:35.133Z,732.00
2022-11-01T08:53:20.326Z,701.38
2022-11-01T08:58:15.457Z,729.67
2022-11-01T09:00:44.265Z,733.15
2022-11-01T09:03:11.359Z,728.58
2022-11-01T09:05:38.608Z,738.83
2022-11-01T09:08:06.200Z,742.60
2022-11-01T09:10:33.600Z,732.00
2022-11-01T09:13:02.062Z,732.80
2022-11-01T09:15:30.065Z,716.05
2022-11-01T09:17:57.219Z,709.55
2022-11-01T09:20:24.609Z,723.88
2022-11-01T09:22:54.817Z,708.13
2022-11-01T09:25:21.947Z,725.83
2022-11-01T09:27:49.147Z,713.42
2022-11-01T09:30:16.441Z,726.17
2022-11-01T09:32:43.502Z,710.65
2022-11-01T09:35:10.654Z,716.55
2022-11-01T09:37:38.006Z,680.97
2022-11-01T09:40:06.239Z,698.15
2022-11-01T09:42:39.904Z,673.78
2022-11-01T09:45:29.616Z,703.65
2022-11-01T09:47:58.334Z,705.03
2022-11-01T09:50:34.279Z,690.20
2022-11-01T09:56:01.504Z,712.28
2022-11-01T09:59:05.606Z,719.67
2022-11-01T10:01:41.376Z,702.35
2022-11-01T10:06:57.461Z,707.85
2022-11-01T10:10:08.162Z,711.85
2022-11-01T10:13:12.841Z,698.70
2022-11-01T10:16:01.527Z,697.80
2022-11-01T10:18:32.167Z,662.97
2022-11-01T10:21:14.807Z,660.47
2022-11-01T10:23:50.371Z,686.22
2022-11-01T10:26:29.164Z,689.03
2022-11-01T10:29:55.336Z,659.08
2022-11-01T10:32:33.544Z,661.50
2022-11-01T10:35:15.107Z,671.13
2022-11-01T10:38:18.613Z,672.05
2022-11-01T10:41:42.151Z,659.25
2022-11-01T10:44:34.750Z,653.75
2022-11-01T10:47:07.074Z,651.67
2022-11-01T10:50:06.046Z,659.42
2022-11-01T10:52:58.471Z,651.08
2022-11-01T10:55:50.798Z,652.95
2022-11-01T10:58:46.672Z,671.72
2022-11-01T11:01:20.742Z,697.88
2022-11-01T11:03:49.549Z,627.03
2022-11-01T11:06:17.356Z,646.50
2022-11-01T11:08:51.583Z,662.75
2022-11-01T11:11:31.372Z,638.08
2022-11-01T11:14:02.771Z,666.42
2022-11-01T11:16:48.199Z,647.05
2022-11-01T11:19:21.096Z,702.38
2022-11-01T11:21:51.637Z,685.80
2022-11-01T11:24:40.382Z,634.03
2022-11-01T11:27:16.486Z,658.67
2022-11-01T11:29:50.303Z,598.88
2022-11-01T11:32:24.409Z,606.70
2022-11-01T11:35:14.338Z,587.00
2022-11-01T11:37:57.800Z,616.65
2022-11-01T11:40:48.229Z,628.92
2022-11-01T11:43:34.002Z,625.85
2022-11-01T11:46:04.134Z,634.55
2022-11-01T11:48:31.737Z,611.25
2022-11-01T11:51:06.379Z,622.22
2022-11-01T11:53:34.034Z,601.67
2022-11-01T11:56:09.233Z,590.15
2022-11-01T11:58:48.463Z,688.95
2022-11-01T12:01:22.576Z,528.13
2022-11-01T12:04:00.197Z,485.58
2022-11-01T12:06:29.402Z,470.13
2022-11-01T12:08:59.411Z,427.10
2022-11-01T12:11:40.614Z,415.58
2022-11-01T12:14:22.945Z,452.23
2022-11-01T12:16:50.891Z,394.45
2022-11-01T12:19:26.366Z,448.65
2022-11-01T12:21:56.182Z,475.52
2022-11-01T12:24:43.907Z,459.20
2022-11-01T12:27:18.698Z,447.00
2022-11-01T12:29:53.936Z,437.65
2022-11-01T12:32:27.851Z,515.92
2022-11-01T12:34:59.809Z,467.45
2022-11-01T12:37:35.377Z,481.30
2022-11-01T12:40:19.427Z,435.30
2022-11-01T12:42:51.828Z,436.98
2022-11-01T12:45:22.045Z,428.73
2022-11-01T12:48:00.857Z,457.35
2022-11-01T12:50:57.875Z,440.50
2022-11-01T12:56:01.384Z,504.38
2022-11-01T12:58:33.790Z,427.48
2022-11-01T13:01:31.000Z,461.45
2022-11-01T13:04:32.061Z,439.70
2022-11-01T13:07:14.614Z,547.00
2022-11-01T13:10:14.901Z,364.55
2022-11-01T13:13:15.346Z,467.63
2022-11-01T13:16:08.589Z,443.45
2022-11-01T13:18:58.130Z,479.33
2022-11-01T13:21:44.900Z,392.80
2022-11-01T13:24:34.968Z,468.65
2022-11-01T13:27:32.574Z,547.90
2022-11-01T13:30:25.772Z,517.35
2022-11-01T13:33:05.973Z,408.77
2022-11-01T13:36:38.404Z,465.85
2022-11-01T13:39:28.455Z,447.58
2022-11-01T13:42:12.571Z,515.28
2022-11-01T13:44:49.766Z,561.63
2022-11-01T13:47:41.554Z,576.55
2022-11-01T13:50:14.840Z,559.70
2022-11-01T13:52:53.949Z,547.25
2022-11-01T13:55:54.347Z,581.95
2022-11-01T13:58:23.653Z,580.05
2022-11-01T14:00:55.682Z,566.38
2022-11-01T14:03:32.575Z,592.58
2022-11-01T14:06:11.581Z,587.45
2022-11-01T14:08:52.043Z,610.58
2022-11-01T14:11:51.220Z,606.08
2022-11-01T14:14:30.652Z,652.42
2022-11-01T14:17:16.253Z,668.80
2022-11-01T14:19:47.286Z,697.43
2022-11-01T14:22:24.212Z,647.50
2022-11-01T14:25:23.091Z,669.92
2022-11-01T14:28:18.238Z,659.25
2022-11-01T14:30:49.486Z,657.13
2022-11-01T14:33:20.561Z,695.47
2022-11-01T14:35:57.955Z,693.42
2022-11-01T14:38:38.712Z,690.67
2022-11-01T14:41:07.279Z,699.58
2022-11-01T14:43:43.566Z,687.97
2022-11-01T14:46:19.907Z,675.65
2022-11-01T14:48:58.724Z,674.38
2022-11-01T14:51:33.242Z,694.95
2022-11-01T14:54:18.986Z,720.53
2022-11-01T14:56:52.191Z,665.03
2022-11-01T14:59:27.421Z,698.80
2022-11-01T15:02:05.203Z,669.27
2022-11-01T15:04:44.213Z,708.75
2022-11-01T15:07:30.639Z,682.47
2022-11-01T15:10:12.282Z,730.55
2022-11-01T15:12:57.765Z,687.53
2022-11-01T15:15:37.105Z,714.30
2022-11-01T15:18:13.136Z,693.60
2022-11-01T15:23:16.351Z,705.08
2022-11-01T15:25:51.052Z,709.28
2022-11-01T15:28:30.982Z,724.63
2022-11-01T15:31:01.615Z,726.17
2022-11-01T15:33:32.651Z,732.72
2022-11-01T15:36:23.182Z,736.38
2022-11-01T15:39:29.329Z,751.65
2022-11-01T15:41:57.644Z,731.13
2022-11-01T15:44:27.409Z,745.95
2022-11-01T15:47:06.479Z,734.03
2022-11-01T15:49:47.554Z,730.85
2022-11-01T15:52:30.238Z,750.88
2022-11-01T15:55:24.259Z,742.83
2022-11-01T15:58:05.048Z,738.70
2022-11-01T16:00:43.540Z,765.75
2022-11-01T16:03:25.565Z,752.38
2022-11-01T16:06:01.842Z,768.95
2022-11-01T16:08:42.430Z,766.42
2022-11-01T16:11:09.968Z,743.42
2022-11-01T16:13:37.409Z,763.45
2022-11-01T16:16:07.510Z,763.38
2022-11-01T16:18:41.635Z,747.95
2022-11-01T16:21:20.705Z,757.90
2022-11-01T16:24:12.162Z,773.47
2022-11-01T16:27:03.737Z,746.15
2022-11-01T16:29:46.579Z,756.67
2022-11-01T16:32:39.671Z,761.53
2022-11-01T16:35:31.931Z,748.83
2022-11-01T16:37:59.082Z,745.47
2022-11-01T16:40:30.825Z,746.03
2022-11-01T16:42:59.735Z,750.45
2022-11-01T16:45:26.770Z,766.42
2022-11-01T16:47:58.155Z,736.08
2022-11-01T16:50:26.105Z,775.80
2022-11-01T16:52:53.121Z,758.70
2022-11-01T16:55:22.634Z,756.33
2022-11-01T16:57:53.498Z,768.00
2022-11-01T17:00:20.696Z,764.75
2022-11-01T17:02:49.046Z,773.22
2022-11-01T17:05:21.095Z,769.28
2022-11-01T17:07:48.353Z,795.00
2022-11-01T17:10:20.978Z,788.28
2022-11-01T17:12:48.240Z,778.08
2022-11-01T17:15:16.320Z,764.28
2022-11-01T17:17:48.988Z,790.88
2022-11-01T17:20:35.453Z,789.03
2022-11-01T17:23:02.604Z,799.08
2022-11-01T17:25:30.604Z,779.38
2022-11-01T17:27:57.991Z,797.25
2022-11-01T17:30:25.232Z,795.15
2022-11-01T17:32:52.393Z,801.30
2022-11-01T17:35:22.844Z,802.97
2022-11-01T17:37:53.008Z,818.08
2022-11-01T17:40:25.156Z,805.60
2022-11-01T17:42:53.311Z,795.22
2022-11-01T17:45:22.238Z,814.65
2022-11-01T17:47:53.427Z,807.83
2022-11-01T17:50:21.670Z,816.83
2022-11-01T17:52:49.122Z,809.08
2022-11-01T17:55:16.354Z,831.35
2022-11-01T17:57:46.494Z,812.25
2022-11-01T18:00:14.018Z,819.33
2022-11-01T18:02:42.423Z,816.60
2022-11-01T18:05:10.180Z,827.00
2022-11-01T18:07:42.413Z,839.00
2022-11-01T18:10:46.360Z,826.05
2022-11-01T18:13:45.989Z,820.58
2022-11-01T18:16:34.347Z,824.05
2022-11-01T18:19:19.522Z,813.58
2022-11-01T18:22:11.731Z,820.95
2022-11-01T18:24:46.463Z,808.20
2022-11-01T18:27:18.168Z,833.42
2022-11-01T18:29:49.633Z,813.47
2022-11-01T18:32:23.980Z,814.83
2022-11-01T18:35:03.634Z,827.72
2022-11-01T18:37:49.118Z,813.22
2022-11-01T18:41:00.956Z,822.10
2022-11-01T18:43:34.073Z,836.65
2022-11-01T18:46:24.924Z,812.83
2022-11-01T18:48:59.980Z,828.08
2022-11-01T18:51:33.593Z,818.75
2022-11-01T18:54:09.541Z,806.42
2022-11-01T18:59:34.905Z,825.10
2022-11-01T19:02:11.237Z,807.80
2022-11-01T19:04:42.607Z,819.58
2022-11-01T19:07:20.147Z,826.63
2022-11-01T19:09:57.152Z,811.65
2022-11-01T19:12:29.614Z,800.72
2022-11-01T19:15:03.700Z,798.80
2022-11-01T19:17:37.314Z,807.53
2022-11-01T19:20:21.468Z,793.65
2022-11-01T19:22:48.735Z,807.97
2022-11-01T19:25:29.376Z,805.47
2022-11-01T19:28:02.237Z,807.05
2022-11-01T19:30:32.140Z,817.60
2022-11-01T19:33:37.658Z,799.72
2022-11-01T19:36:18.496Z,805.88
2022-11-01T19:38:47.890Z,803.78
2022-11-01T19:41:19.613Z,795.78
2022-11-01T19:43:46.655Z,778.42
2022-11-01T19:46:18.675Z,814.80
2022-11-01T19:48:46.176Z,792.08
2022-11-01T19:51:22.879Z,821.47
2022-11-01T19:53:51.674Z,808.03
2022-11-01T19:56:31.200Z,788.53
2022-11-01T19:59:00.556Z,793.75
2022-11-01T20:01:32.430Z,782.63
2022-11-01T20:04:31.264Z,793.47
2022-11-01T20:07:09.704Z,814.33
2022-11-01T20:09:38.807Z,804.28
2022-11-01T20:12:06.262Z,814.17
2022-11-01T20:14:35.155Z,833.00
2022-11-01T20:17:02.983Z,797.88
2022-11-01T20:19:31.321Z,817.97
2022-11-01T20:21:58.937Z,811.72
2022-11-01T20:24:27.471Z,817.03
2022-11-01T20:26:55.146Z,810.15
2022-11-01T20:29:22.724Z,832.25
2022-11-01T20:31:49.969Z,815.92
2022-11-01T20:34:17.173Z,818.72
2022-11-01T20:36:46.845Z,824.40
2022-11-01T20:39:24.110Z,818.05
2022-11-01T20:41:52.148Z,825.83
2022-11-01T20:44:20.081Z,798.22
2022-11-01T20:46:47.236Z,811.30
2022-11-01T20:49:14.301Z,830.53
2022-11-01T20:51:41.461Z,809.72
2022-11-01T20:54:08.398Z,825.15
2022-11-01T20:56:35.510Z,807.42
2022-11-01T20:59:05.671Z,822.28
2022-11-01T21:01:33.078Z,804.25
2022-11-01T21:04:00.158Z,813.47
2022-11-01T21:06:31.520Z,802.60
2022-11-01T21:08:58.904Z,807.97
2022-11-01T21:11:52.394Z,822.35
2022-11-01T21:14:20.354Z,807.42
2022-11-01T21:16:50.510Z,824.22
2022-11-01T21:19:25.025Z,794.45
2022-11-01T21:21:58.381Z,798.83
2022-11-01T21:24:35.274Z,833.10
2022-11-01T21:27:26.127Z,800.60
2022-11-01T21:30:15.545Z,714.08
2022-11-01T21:32:45.395Z,822.00
2022-11-01T21:35:38.926Z,819.72
2022-11-01T21:38:36.952Z,796.75
2022-11-01T21:41:34.792Z,826.25
2022-11-01T21:44:27.401Z,816.53
2022-11-01T21:47:06.452Z,809.88
2022-11-01T21:49:33.507Z,802.88
2022-11-01T21:52:03.544Z,784.03
2022-11-01T21:54:33.994Z,811.00
2022-11-01T21:57:02.465Z,824.13
2022-11-01T21:59:30.199Z,817.35
2022-11-01T22:02:00.992Z,838.95
2022-11-01T22:04:30.456Z,833.85
2022-11-01T22:07:03.852Z,827.10
2022-11-01T22:09:32.526Z,838.45
2022-11-01T22:11:59.581Z,853.17
2022-11-01T22:14:26.678Z,878.83
2022-11-01T22:16:53.755Z,877.25
2022-11-01T22:19:21.001Z,702.08
2022-11-01T22:21:47.987Z,828.90
2022-11-01T22:24:15.180Z,877.88
2022-11-01T22:26:42.226Z,844.40
2022-11-01T22:29:09.208Z,865.30
2022-11-01T22:31:36.185Z,780.85
2022-11-01T22:34:03.178Z,789.90
2022-11-01T22:36:35.436Z,802.97
2022-11-01T22:39:15.347Z,811.60
2022-11-01T22:41:42.444Z,779.30
2022-11-01T22:44:15.010Z,814.40
2022-11-01T22:46:59.007Z,796.03
2022-11-01T22:49:32.845Z,804.70
2022-11-01T22:52:21.331Z,789.33
2022-11-01T22:54:52.817Z,792.17
2022-11-01T22:57:24.151Z,793.10
2022-11-01T22:59:53.414Z,783.25
2022-11-01T23:02:31.905Z,795.47
2022-11-01T23:05:08.244Z,778.35
2022-11-01T23:07:53.138Z,770.55
2022-11-01T23:10:34.798Z,782.90
2022-11-01T23:13:50.750Z,787.40
2022-11-01T23:16:27.898Z,751.00
2022-11-01T23:18:58.705Z,788.67
2022-11-01T23:21:26.984Z,771.25
2022-11-01T23:23:54.759Z,765.53
2022-11-01T23:26:23.639Z,760.55
2022-11-01T23:28:54.737Z,785.95
2022-11-01T23:31:23.405Z,761.03
2022-11-01T23:33:51.058Z,766.03
2022-11-01T23:36:19.683Z,761.50
2022-11-01T23:38:52.153Z,757.83
2022-11-01T23:41:26.035Z,771.72
2022-11-01T23:43:57.225Z,783.63
2022-11-01T23:46:26.591Z,791.55
2022-11-01T23:49:02.094Z,789.13
2022-11-01T23:51:31.270Z,831.50
2022-11-01T23:53:59.186Z,817.60
2022-11-01T23:56:26.497Z,795.83
2022-11-01T23:59:04.301Z,825.85
